sensor_id;sensor_type;location;lat;lon;timestamp;P1;durP1;ratioP1;P2;durP2;ratioP2
56712;SDS011;42589;45.536;9.032;2023-04-24T00:00:07;14.90;;;11.30;;
56712;SDS011;42589;45.536;9.032;2023-04-24T00:03:12;11.75;;;10.38;;
56712;SDS011;42589;45.536;9.032;2023-04-24T00:06:13;12.80;;;9.73;;
56712;SDS011;42589;45.536;9.032;2023-04-24T00:09:14;12.93;;;10.45;;
56712;SDS011;42589;45.536;9.032;2023-04-24T00:12:15;13.25;;;10.15;;
56712;SDS011;42589;45.536;9.032;2023-04-24T00:15:16;12.95;;;9.57;;
56712;SDS011;42589;45.536;9.032;2023-04-24T00:18:17;12.95;;;9.70;;
56712;SDS011;42589;45.536;9.032;2023-04-24T00:21:18;12.77;;;10.18;;
56712;SDS011;42589;45.536;9.032;2023-04-24T00:24:19;11.38;;;9.40;;
56712;SDS011;42589;45.536;9.032;2023-04-24T00:27:21;11.55;;;9.70;;
56712;SDS011;42589;45.536;9.032;2023-04-24T00:30:22;14.05;;;10.45;;
56712;SDS011;42589;45.536;9.032;2023-04-24T00:33:23;10.07;;;8.73;;
56712;SDS011;42589;45.536;9.032;2023-04-24T00:36:24;10.05;;;9.00;;
56712;SDS011;42589;45.536;9.032;2023-04-24T00:39:25;10.27;;;8.20;;
56712;SDS011;42589;45.536;9.032;2023-04-24T00:42:26;8.55;;;7.57;;
56712;SDS011;42589;45.536;9.032;2023-04-24T00:45:26;8.57;;;7.30;;
56712;SDS011;42589;45.536;9.032;2023-04-24T00:48:27;8.15;;;6.90;;
56712;SDS011;42589;45.536;9.032;2023-04-24T00:51:28;8.50;;;7.03;;
56712;SDS011;42589;45.536;9.032;2023-04-24T00:54:30;8.23;;;6.60;;
56712;SDS011;42589;45.536;9.032;2023-04-24T00:57:31;9.40;;;6.45;;
56712;SDS011;42589;45.536;9.032;2023-04-24T01:00:32;7.20;;;5.78;;
56712;SDS011;42589;45.536;9.032;2023-04-24T01:03:33;6.68;;;6.00;;
56712;SDS011;42589;45.536;9.032;2023-04-24T01:06:37;8.80;;;6.30;;
56712;SDS011;42589;45.536;9.032;2023-04-24T01:09:40;5.85;;;5.25;;
56712;SDS011;42589;45.536;9.032;2023-04-24T01:12:41;6.80;;;5.55;;
56712;SDS011;42589;45.536;9.032;2023-04-24T01:15:42;6.60;;;5.70;;
56712;SDS011;42589;45.536;9.032;2023-04-24T01:18:43;7.97;;;5.57;;
56712;SDS011;42589;45.536;9.032;2023-04-24T01:21:44;9.18;;;5.78;;
56712;SDS011;42589;45.536;9.032;2023-04-24T01:24:47;6.20;;;5.60;;
56712;SDS011;42589;45.536;9.032;2023-04-24T01:27:48;5.85;;;5.25;;
56712;SDS011;42589;45.536;9.032;2023-04-24T01:30:49;8.10;;;6.57;;
56712;SDS011;42589;45.536;9.032;2023-04-24T01:33:51;7.65;;;6.57;;
56712;SDS011;42589;45.536;9.032;2023-04-24T01:36:52;8.93;;;7.35;;
56712;SDS011;42589;45.536;9.032;2023-04-24T01:39:53;10.70;;;8.40;;
56712;SDS011;42589;45.536;9.032;2023-04-24T01:42:54;11.50;;;9.30;;
56712;SDS011;42589;45.536;9.032;2023-04-24T01:45:55;11.38;;;9.10;;
56712;SDS011;42589;45.536;9.032;2023-04-24T01:48:56;10.50;;;9.00;;
56712;SDS011;42589;45.536;9.032;2023-04-24T01:52:00;9.67;;;8.67;;
56712;SDS011;42589;45.536;9.032;2023-04-24T01:55:01;12.68;;;10.38;;
56712;SDS011;42589;45.536;9.032;2023-04-24T01:58:03;12.15;;;9.43;;
56712;SDS011;42589;45.536;9.032;2023-04-24T02:01:06;11.40;;;9.90;;
56712;SDS011;42589;45.536;9.032;2023-04-24T02:04:07;13.75;;;9.68;;
56712;SDS011;42589;45.536;9.032;2023-04-24T02:07:08;10.85;;;9.68;;
56712;SDS011;42589;45.536;9.032;2023-04-24T02:10:09;10.18;;;8.98;;
56712;SDS011;42589;45.536;9.032;2023-04-24T02:13:10;9.63;;;8.55;;
56712;SDS011;42589;45.536;9.032;2023-04-24T02:16:11;10.38;;;8.00;;
56712;SDS011;42589;45.536;9.032;2023-04-24T02:19:13;10.35;;;7.75;;
56712;SDS011;42589;45.536;9.032;2023-04-24T02:22:13;7.78;;;6.85;;
56712;SDS011;42589;45.536;9.032;2023-04-24T02:25:17;8.95;;;6.90;;
56712;SDS011;42589;45.536;9.032;2023-04-24T02:28:18;8.63;;;6.43;;
56712;SDS011;42589;45.536;9.032;2023-04-24T02:31:19;6.85;;;6.13;;
56712;SDS011;42589;45.536;9.032;2023-04-24T02:34:20;7.30;;;5.85;;
56712;SDS011;42589;45.536;9.032;2023-04-24T02:37:21;6.30;;;5.70;;
56712;SDS011;42589;45.536;9.032;2023-04-24T02:40:23;9.18;;;6.55;;
56712;SDS011;42589;45.536;9.032;2023-04-24T02:43:25;7.63;;;6.20;;
56712;SDS011;42589;45.536;9.032;2023-04-24T02:46:26;10.85;;;6.15;;
56712;SDS011;42589;45.536;9.032;2023-04-24T02:49:27;6.40;;;5.80;;
56712;SDS011;42589;45.536;9.032;2023-04-24T02:52:28;6.47;;;5.13;;
56712;SDS011;42589;45.536;9.032;2023-04-24T02:55:29;5.97;;;5.38;;
56712;SDS011;42589;45.536;9.032;2023-04-24T02:58:30;5.85;;;5.25;;
56712;SDS011;42589;45.536;9.032;2023-04-24T03:01:31;6.97;;;4.38;;
56712;SDS011;42589;45.536;9.032;2023-04-24T03:04:32;5.15;;;4.60;;
56712;SDS011;42589;45.536;9.032;2023-04-24T03:07:33;6.85;;;4.70;;
56712;SDS011;42589;45.536;9.032;2023-04-24T03:10:34;6.93;;;4.93;;
56712;SDS011;42589;45.536;9.032;2023-04-24T03:13:35;5.45;;;4.85;;
56712;SDS011;42589;45.536;9.032;2023-04-24T03:16:36;8.23;;;6.32;;
56712;SDS011;42589;45.536;9.032;2023-04-24T03:19:37;19.08;;;13.23;;
56712;SDS011;42589;45.536;9.032;2023-04-24T03:22:39;17.10;;;13.02;;
56712;SDS011;42589;45.536;9.032;2023-04-24T03:25:40;17.60;;;12.68;;
56712;SDS011;42589;45.536;9.032;2023-04-24T03:28:42;10.30;;;7.32;;
56712;SDS011;42589;45.536;9.032;2023-04-24T03:31:43;12.18;;;8.88;;
56712;SDS011;42589;45.536;9.032;2023-04-24T03:34:45;9.15;;;7.30;;
56712;SDS011;42589;45.536;9.032;2023-04-24T03:37:46;9.85;;;7.43;;
56712;SDS011;42589;45.536;9.032;2023-04-24T03:40:47;8.77;;;6.78;;
56712;SDS011;42589;45.536;9.032;2023-04-24T03:43:48;8.15;;;6.53;;
56712;SDS011;42589;45.536;9.032;2023-04-24T03:46:51;9.55;;;6.72;;
56712;SDS011;42589;45.536;9.032;2023-04-24T03:49:52;8.30;;;6.97;;
56712;SDS011;42589;45.536;9.032;2023-04-24T03:52:55;6.43;;;5.80;;
56712;SDS011;42589;45.536;9.032;2023-04-24T03:55:56;8.57;;;6.60;;
56712;SDS011;42589;45.536;9.032;2023-04-24T03:58:57;7.50;;;6.32;;
56712;SDS011;42589;45.536;9.032;2023-04-24T04:01:58;7.70;;;6.93;;
56712;SDS011;42589;45.536;9.032;2023-04-24T04:04:59;8.25;;;7.22;;
56712;SDS011;42589;45.536;9.032;2023-04-24T04:08:01;7.10;;;6.40;;
56712;SDS011;42589;45.536;9.032;2023-04-24T04:11:01;8.23;;;6.80;;
56712;SDS011;42589;45.536;9.032;2023-04-24T04:14:02;6.38;;;5.63;;
56712;SDS011;42589;45.536;9.032;2023-04-24T04:17:04;6.35;;;5.72;;
56712;SDS011;42589;45.536;9.032;2023-04-24T04:20:05;7.20;;;5.90;;
56712;SDS011;42589;45.536;9.032;2023-04-24T04:23:09;7.78;;;5.80;;
56712;SDS011;42589;45.536;9.032;2023-04-24T04:26:10;5.32;;;4.75;;
56712;SDS011;42589;45.536;9.032;2023-04-24T04:29:12;5.60;;;5.03;;
56712;SDS011;42589;45.536;9.032;2023-04-24T04:32:16;8.18;;;5.63;;
56712;SDS011;42589;45.536;9.032;2023-04-24T04:35:17;7.22;;;5.88;;
56712;SDS011;42589;45.536;9.032;2023-04-24T04:38:17;6.35;;;5.57;;
56712;SDS011;42589;45.536;9.032;2023-04-24T04:41:18;7.15;;;5.05;;
56712;SDS011;42589;45.536;9.032;2023-04-24T04:44:20;6.63;;;5.10;;
56712;SDS011;42589;45.536;9.032;2023-04-24T04:47:21;6.28;;;5.68;;
56712;SDS011;42589;45.536;9.032;2023-04-24T04:50:26;5.85;;;5.25;;
56712;SDS011;42589;45.536;9.032;2023-04-24T04:53:27;7.20;;;5.72;;
56712;SDS011;42589;45.536;9.032;2023-04-24T04:56:28;6.72;;;5.50;;
56712;SDS011;42589;45.536;9.032;2023-04-24T04:59:29;6.20;;;5.10;;
56712;SDS011;42589;45.536;9.032;2023-04-24T05:02:30;5.72;;;5.00;;
56712;SDS011;42589;45.536;9.032;2023-04-24T05:05:31;5.75;;;4.88;;
56712;SDS011;42589;45.536;9.032;2023-04-24T05:08:32;4.68;;;4.28;;
56712;SDS011;42589;45.536;9.032;2023-04-24T05:11:33;6.72;;;4.95;;
56712;SDS011;42589;45.536;9.032;2023-04-24T05:14:33;4.90;;;4.15;;
56712;SDS011;42589;45.536;9.032;2023-04-24T05:17:34;7.30;;;5.05;;
56712;SDS011;42589;45.536;9.032;2023-04-24T05:20:37;6.53;;;5.10;;
56712;SDS011;42589;45.536;9.032;2023-04-24T05:23:38;5.40;;;4.90;;
56712;SDS011;42589;45.536;9.032;2023-04-24T05:26:39;5.50;;;4.93;;
56712;SDS011;42589;45.536;9.032;2023-04-24T05:29:40;6.45;;;5.20;;
56712;SDS011;42589;45.536;9.032;2023-04-24T05:32:42;4.95;;;4.47;;
56712;SDS011;42589;45.536;9.032;2023-04-24T05:35:43;7.10;;;4.35;;
56712;SDS011;42589;45.536;9.032;2023-04-24T05:38:46;5.85;;;4.43;;
56712;SDS011;42589;45.536;9.032;2023-04-24T05:41:48;5.13;;;4.30;;
56712;SDS011;42589;45.536;9.032;2023-04-24T05:44:49;5.03;;;3.63;;
56712;SDS011;42589;45.536;9.032;2023-04-24T05:47:50;4.72;;;4.18;;
56712;SDS011;42589;45.536;9.032;2023-04-24T05:50:52;6.53;;;4.05;;
56712;SDS011;42589;45.536;9.032;2023-04-24T05:53:53;5.13;;;3.60;;
56712;SDS011;42589;45.536;9.032;2023-04-24T05:56:54;3.30;;;3.00;;
56712;SDS011;42589;45.536;9.032;2023-04-24T05:59:55;4.20;;;3.40;;
56712;SDS011;42589;45.536;9.032;2023-04-24T06:03:00;3.33;;;3.03;;
56712;SDS011;42589;45.536;9.032;2023-04-24T06:06:01;3.53;;;3.22;;
56712;SDS011;42589;45.536;9.032;2023-04-24T06:09:02;5.22;;;2.83;;
56712;SDS011;42589;45.536;9.032;2023-04-24T06:12:03;3.65;;;2.90;;
56712;SDS011;42589;45.536;9.032;2023-04-24T06:15:08;2.95;;;2.38;;
56712;SDS011;42589;45.536;9.032;2023-04-24T06:18:08;2.75;;;2.00;;
56712;SDS011;42589;45.536;9.032;2023-04-24T06:21:10;2.80;;;1.70;;
56712;SDS011;42589;45.536;9.032;2023-04-24T06:24:13;2.70;;;1.70;;
56712;SDS011;42589;45.536;9.032;2023-04-24T06:27:14;2.60;;;1.67;;
56712;SDS011;42589;45.536;9.032;2023-04-24T06:30:15;3.45;;;1.92;;
56712;SDS011;42589;45.536;9.032;2023-04-24T06:33:16;3.53;;;2.22;;
56712;SDS011;42589;45.536;9.032;2023-04-24T06:36:17;5.95;;;2.35;;
56712;SDS011;42589;45.536;9.032;2023-04-24T06:39:17;2.10;;;1.90;;
56712;SDS011;42589;45.536;9.032;2023-04-24T06:42:19;1.90;;;1.70;;
56712;SDS011;42589;45.536;9.032;2023-04-24T06:45:24;1.98;;;1.73;;
56712;SDS011;42589;45.536;9.032;2023-04-24T06:48:26;2.20;;;1.80;;
56712;SDS011;42589;45.536;9.032;2023-04-24T06:51:28;2.17;;;1.52;;
56712;SDS011;42589;45.536;9.032;2023-04-24T06:54:29;2.20;;;1.45;;
56712;SDS011;42589;45.536;9.032;2023-04-24T06:57:31;3.42;;;1.70;;
56712;SDS011;42589;45.536;9.032;2023-04-24T07:00:32;1.92;;;1.70;;
56712;SDS011;42589;45.536;9.032;2023-04-24T07:03:33;1.88;;;1.67;;
56712;SDS011;42589;45.536;9.032;2023-04-24T07:06:34;2.15;;;1.90;;
56712;SDS011;42589;45.536;9.032;2023-04-24T07:09:35;3.10;;;2.17;;
56712;SDS011;42589;45.536;9.032;2023-04-24T07:12:38;1.88;;;1.70;;
56712;SDS011;42589;45.536;9.032;2023-04-24T07:15:39;2.95;;;1.95;;
56712;SDS011;42589;45.536;9.032;2023-04-24T07:18:41;3.05;;;2.20;;
56712;SDS011;42589;45.536;9.032;2023-04-24T07:21:42;2.38;;;2.17;;
56712;SDS011;42589;45.536;9.032;2023-04-24T07:24:43;4.05;;;2.30;;
56712;SDS011;42589;45.536;9.032;2023-04-24T07:27:44;2.22;;;2.03;;
56712;SDS011;42589;45.536;9.032;2023-04-24T07:30:45;4.18;;;2.50;;
56712;SDS011;42589;45.536;9.032;2023-04-24T07:33:47;2.33;;;2.10;;
56712;SDS011;42589;45.536;9.032;2023-04-24T07:36:48;3.03;;;2.50;;
56712;SDS011;42589;45.536;9.032;2023-04-24T07:39:49;5.03;;;3.10;;
56712;SDS011;42589;45.536;9.032;2023-04-24T07:42:50;4.22;;;2.83;;
56712;SDS011;42589;45.536;9.032;2023-04-24T07:45:51;3.63;;;2.95;;
56712;SDS011;42589;45.536;9.032;2023-04-24T07:48:52;2.90;;;2.70;;
56712;SDS011;42589;45.536;9.032;2023-04-24T07:51:52;2.55;;;2.30;;
56712;SDS011;42589;45.536;9.032;2023-04-24T07:54:54;2.63;;;2.15;;
56712;SDS011;42589;45.536;9.032;2023-04-24T07:57:58;2.13;;;1.92;;
56712;SDS011;42589;45.536;9.032;2023-04-24T08:00:59;2.00;;;1.77;;
56712;SDS011;42589;45.536;9.032;2023-04-24T08:03:59;2.05;;;1.92;;
56712;SDS011;42589;45.536;9.032;2023-04-24T08:07:00;2.25;;;1.60;;
56712;SDS011;42589;45.536;9.032;2023-04-24T08:10:01;2.67;;;2.20;;
56712;SDS011;42589;45.536;9.032;2023-04-24T08:13:02;2.30;;;1.90;;
56712;SDS011;42589;45.536;9.032;2023-04-24T08:16:03;2.70;;;1.90;;
56712;SDS011;42589;45.536;9.032;2023-04-24T08:19:04;3.95;;;2.17;;
56712;SDS011;42589;45.536;9.032;2023-04-24T08:22:05;1.67;;;1.58;;
56712;SDS011;42589;45.536;9.032;2023-04-24T08:25:06;3.10;;;1.65;;
56712;SDS011;42589;45.536;9.032;2023-04-24T08:28:08;2.47;;;1.60;;
56712;SDS011;42589;45.536;9.032;2023-04-24T08:31:10;2.80;;;1.40;;
56712;SDS011;42589;45.536;9.032;2023-04-24T08:34:11;3.63;;;1.92;;
56712;SDS011;42589;45.536;9.032;2023-04-24T08:37:15;1.70;;;1.20;;
56712;SDS011;42589;45.536;9.032;2023-04-24T08:40:15;1.65;;;1.40;;
56712;SDS011;42589;45.536;9.032;2023-04-24T08:43:17;1.75;;;1.65;;
56712;SDS011;42589;45.536;9.032;2023-04-24T08:46:18;2.22;;;1.55;;
56712;SDS011;42589;45.536;9.032;2023-04-24T08:49:21;1.85;;;1.48;;
56712;SDS011;42589;45.536;9.032;2023-04-24T08:52:25;1.33;;;1.20;;
56712;SDS011;42589;45.536;9.032;2023-04-24T08:55:29;1.95;;;1.13;;
56712;SDS011;42589;45.536;9.032;2023-04-24T08:58:31;1.20;;;1.05;;
56712;SDS011;42589;45.536;9.032;2023-04-24T09:01:32;0.70;;;0.60;;
56712;SDS011;42589;45.536;9.032;2023-04-24T09:04:33;1.05;;;0.95;;
56712;SDS011;42589;45.536;9.032;2023-04-24T09:07:35;2.17;;;1.10;;
56712;SDS011;42589;45.536;9.032;2023-04-24T09:10:41;0.98;;;0.80;;
56712;SDS011;42589;45.536;9.032;2023-04-24T09:13:42;1.17;;;1.08;;
56712;SDS011;42589;45.536;9.032;2023-04-24T09:16:47;1.88;;;1.13;;
56712;SDS011;42589;45.536;9.032;2023-04-24T09:19:51;1.85;;;1.23;;
56712;SDS011;42589;45.536;9.032;2023-04-24T09:22:53;1.40;;;1.30;;
56712;SDS011;42589;45.536;9.032;2023-04-24T09:26:14;1.15;;;1.00;;
56712;SDS011;42589;45.536;9.032;2023-04-24T09:29:16;2.15;;;1.25;;
56712;SDS011;42589;45.536;9.032;2023-04-24T09:32:19;1.35;;;1.25;;
56712;SDS011;42589;45.536;9.032;2023-04-24T09:39:11;1.52;;;1.42;;
56712;SDS011;42589;45.536;9.032;2023-04-24T09:42:33;3.30;;;1.30;;
56712;SDS011;42589;45.536;9.032;2023-04-24T09:45:42;1.88;;;1.33;;
56712;SDS011;42589;45.536;9.032;2023-04-24T09:48:43;1.50;;;1.35;;
56712;SDS011;42589;45.536;9.032;2023-04-24T09:51:44;1.50;;;1.27;;
56712;SDS011;42589;45.536;9.032;2023-04-24T09:54:46;1.13;;;1.02;;
56712;SDS011;42589;45.536;9.032;2023-04-24T09:57:57;1.65;;;1.30;;
56712;SDS011;42589;45.536;9.032;2023-04-24T10:01:00;1.88;;;1.27;;
56712;SDS011;42589;45.536;9.032;2023-04-24T10:04:01;2.00;;;1.30;;
56712;SDS011;42589;45.536;9.032;2023-04-24T10:07:02;1.33;;;1.20;;
56712;SDS011;42589;45.536;9.032;2023-04-24T10:10:06;2.00;;;1.40;;
56712;SDS011;42589;45.536;9.032;2023-04-24T10:13:09;1.20;;;1.10;;
56712;SDS011;42589;45.536;9.032;2023-04-24T10:16:13;1.08;;;0.90;;
56712;SDS011;42589;45.536;9.032;2023-04-24T10:19:15;1.77;;;1.00;;
56712;SDS011;42589;45.536;9.032;2023-04-24T10:22:18;1.48;;;0.75;;
56712;SDS011;42589;45.536;9.032;2023-04-24T10:25:20;0.82;;;0.82;;
56712;SDS011;42589;45.536;9.032;2023-04-24T10:28:21;2.40;;;1.10;;
56712;SDS011;42589;45.536;9.032;2023-04-24T10:31:24;1.73;;;0.85;;
56712;SDS011;42589;45.536;9.032;2023-04-24T10:34:25;1.15;;;0.93;;
56712;SDS011;42589;45.536;9.032;2023-04-24T10:37:27;2.70;;;1.08;;
56712;SDS011;42589;45.536;9.032;2023-04-24T10:40:30;0.73;;;0.73;;
56712;SDS011;42589;45.536;9.032;2023-04-24T10:43:32;1.55;;;0.80;;
56712;SDS011;42589;45.536;9.032;2023-04-24T10:46:34;1.13;;;1.00;;
56712;SDS011;42589;45.536;9.032;2023-04-24T10:49:40;1.27;;;0.70;;
56712;SDS011;42589;45.536;9.032;2023-04-24T10:52:44;0.80;;;0.80;;
56712;SDS011;42589;45.536;9.032;2023-04-24T10:55:51;1.38;;;0.90;;
56712;SDS011;42589;45.536;9.032;2023-04-24T10:58:58;1.30;;;1.00;;
56712;SDS011;42589;45.536;9.032;2023-04-24T11:01:59;2.10;;;1.20;;
56712;SDS011;42589;45.536;9.032;2023-04-24T11:05:02;1.50;;;1.40;;
56712;SDS011;42589;45.536;9.032;2023-04-24T11:11:13;2.42;;;1.20;;
56712;SDS011;42589;45.536;9.032;2023-04-24T11:14:15;1.67;;;1.05;;
56712;SDS011;42589;45.536;9.032;2023-04-24T11:17:27;3.08;;;0.90;;
56712;SDS011;42589;45.536;9.032;2023-04-24T11:20:31;1.00;;;0.90;;
56712;SDS011;42589;45.536;9.032;2023-04-24T11:23:35;1.20;;;1.00;;
56712;SDS011;42589;45.536;9.032;2023-04-24T11:26:37;1.80;;;0.90;;
56712;SDS011;42589;45.536;9.032;2023-04-24T11:33:03;1.30;;;1.20;;
56712;SDS011;42589;45.536;9.032;2023-04-24T11:36:04;1.73;;;1.00;;
56712;SDS011;42589;45.536;9.032;2023-04-24T11:39:05;1.05;;;0.98;;
56712;SDS011;42589;45.536;9.032;2023-04-24T11:42:06;2.55;;;1.40;;
56712;SDS011;42589;45.536;9.032;2023-04-24T11:48:09;2.25;;;1.33;;
56712;SDS011;42589;45.536;9.032;2023-04-24T11:51:11;1.17;;;1.00;;
56712;SDS011;42589;45.536;9.032;2023-04-24T11:54:13;1.58;;;1.45;;
56712;SDS011;42589;45.536;9.032;2023-04-24T11:57:14;2.05;;;1.20;;
56712;SDS011;42589;45.536;9.032;2023-04-24T12:00:18;1.42;;;1.00;;
56712;SDS011;42589;45.536;9.032;2023-04-24T12:03:20;1.17;;;0.93;;
56712;SDS011;42589;45.536;9.032;2023-04-24T12:06:21;1.10;;;1.00;;
56712;SDS011;42589;45.536;9.032;2023-04-24T12:09:22;1.10;;;0.90;;
56712;SDS011;42589;45.536;9.032;2023-04-24T12:12:24;3.33;;;1.17;;
56712;SDS011;42589;45.536;9.032;2023-04-24T12:15:28;1.73;;;1.02;;
56712;SDS011;42589;45.536;9.032;2023-04-24T12:18:29;1.20;;;1.00;;
56712;SDS011;42589;45.536;9.032;2023-04-24T12:21:29;1.17;;;1.08;;
56712;SDS011;42589;45.536;9.032;2023-04-24T12:24:32;1.60;;;0.80;;
56712;SDS011;42589;45.536;9.032;2023-04-24T12:27:35;1.50;;;1.02;;
56712;SDS011;42589;45.536;9.032;2023-04-24T12:33:44;2.10;;;1.13;;
56712;SDS011;42589;45.536;9.032;2023-04-24T12:36:44;1.60;;;0.68;;
56712;SDS011;42589;45.536;9.032;2023-04-24T12:40:01;0.77;;;0.70;;
56712;SDS011;42589;45.536;9.032;2023-04-24T12:43:02;1.05;;;0.60;;
56712;SDS011;42589;45.536;9.032;2023-04-24T12:46:12;0.60;;;0.60;;
56712;SDS011;42589;45.536;9.032;2023-04-24T12:49:14;1.42;;;0.60;;
56712;SDS011;42589;45.536;9.032;2023-04-24T12:52:14;0.60;;;0.60;;
56712;SDS011;42589;45.536;9.032;2023-04-24T12:55:15;1.27;;;1.10;;
56712;SDS011;42589;45.536;9.032;2023-04-24T12:58:16;0.90;;;0.68;;
56712;SDS011;42589;45.536;9.032;2023-04-24T13:01:17;1.23;;;0.40;;
56712;SDS011;42589;45.536;9.032;2023-04-24T13:04:18;1.05;;;0.40;;
56712;SDS011;42589;45.536;9.032;2023-04-24T13:07:19;0.40;;;0.30;;
56712;SDS011;42589;45.536;9.032;2023-04-24T13:10:20;1.08;;;0.60;;
56712;SDS011;42589;45.536;9.032;2023-04-24T13:13:21;1.85;;;0.50;;
56712;SDS011;42589;45.536;9.032;2023-04-24T13:16:22;1.30;;;0.50;;
56712;SDS011;42589;45.536;9.032;2023-04-24T13:19:24;0.80;;;0.57;;
56712;SDS011;42589;45.536;9.032;2023-04-24T13:22:26;0.82;;;0.52;;
56712;SDS011;42589;45.536;9.032;2023-04-24T13:25:27;0.60;;;0.40;;
56712;SDS011;42589;45.536;9.032;2023-04-24T13:28:29;0.60;;;0.50;;
56712;SDS011;42589;45.536;9.032;2023-04-24T13:31:30;0.90;;;0.63;;
56712;SDS011;42589;45.536;9.032;2023-04-24T13:34:31;1.00;;;0.40;;
56712;SDS011;42589;45.536;9.032;2023-04-24T13:37:32;1.05;;;0.60;;
56712;SDS011;42589;45.536;9.032;2023-04-24T13:40:32;2.40;;;0.50;;
56712;SDS011;42589;45.536;9.032;2023-04-24T13:43:33;0.68;;;0.43;;
56712;SDS011;42589;45.536;9.032;2023-04-24T13:46:33;1.70;;;0.50;;
56712;SDS011;42589;45.536;9.032;2023-04-24T13:49:35;0.50;;;0.50;;
56712;SDS011;42589;45.536;9.032;2023-04-24T13:52:36;0.50;;;0.50;;
56712;SDS011;42589;45.536;9.032;2023-04-24T13:55:36;0.57;;;0.40;;
56712;SDS011;42589;45.536;9.032;2023-04-24T13:58:38;1.23;;;0.52;;
56712;SDS011;42589;45.536;9.032;2023-04-24T14:01:39;0.93;;;0.20;;
56712;SDS011;42589;45.536;9.032;2023-04-24T14:04:40;0.43;;;0.30;;
56712;SDS011;42589;45.536;9.032;2023-04-24T14:07:41;0.25;;;0.25;;
56712;SDS011;42589;45.536;9.032;2023-04-24T14:10:42;0.60;;;0.40;;
56712;SDS011;42589;45.536;9.032;2023-04-24T14:13:43;0.75;;;0.40;;
56712;SDS011;42589;45.536;9.032;2023-04-24T14:16:44;0.95;;;0.30;;
56712;SDS011;42589;45.536;9.032;2023-04-24T14:19:48;0.55;;;0.40;;
56712;SDS011;42589;45.536;9.032;2023-04-24T14:22:49;0.30;;;0.30;;
56712;SDS011;42589;45.536;9.032;2023-04-24T14:25:49;0.32;;;0.32;;
56712;SDS011;42589;45.536;9.032;2023-04-24T14:28:50;1.50;;;1.10;;
56712;SDS011;42589;45.536;9.032;2023-04-24T14:31:52;1.60;;;0.40;;
56712;SDS011;42589;45.536;9.032;2023-04-24T14:34:53;0.70;;;0.55;;
56712;SDS011;42589;45.536;9.032;2023-04-24T14:37:54;1.58;;;0.40;;
56712;SDS011;42589;45.536;9.032;2023-04-24T14:40:54;0.60;;;0.40;;
56712;SDS011;42589;45.536;9.032;2023-04-24T14:43:56;2.22;;;1.15;;
56712;SDS011;42589;45.536;9.032;2023-04-24T14:46:57;0.65;;;0.50;;
56712;SDS011;42589;45.536;9.032;2023-04-24T14:49:58;0.43;;;0.30;;
56712;SDS011;42589;45.536;9.032;2023-04-24T14:52:59;0.65;;;0.40;;
56712;SDS011;42589;45.536;9.032;2023-04-24T14:56:01;1.17;;;0.40;;
56712;SDS011;42589;45.536;9.032;2023-04-24T14:59:03;0.77;;;0.40;;
56712;SDS011;42589;45.536;9.032;2023-04-24T15:02:04;0.55;;;0.30;;
56712;SDS011;42589;45.536;9.032;2023-04-24T15:05:05;0.40;;;0.40;;
56712;SDS011;42589;45.536;9.032;2023-04-24T15:08:08;0.40;;;0.40;;
56712;SDS011;42589;45.536;9.032;2023-04-24T15:11:09;0.50;;;0.43;;
56712;SDS011;42589;45.536;9.032;2023-04-24T15:14:10;1.42;;;0.50;;
56712;SDS011;42589;45.536;9.032;2023-04-24T15:17:12;0.68;;;0.60;;
56712;SDS011;42589;45.536;9.032;2023-04-24T15:20:12;1.00;;;0.40;;
56712;SDS011;42589;45.536;9.032;2023-04-24T15:23:14;0.45;;;0.35;;
56712;SDS011;42589;45.536;9.032;2023-04-24T15:26:14;0.95;;;0.50;;
56712;SDS011;42589;45.536;9.032;2023-04-24T15:29:15;0.52;;;0.35;;
56712;SDS011;42589;45.536;9.032;2023-04-24T15:32:16;2.15;;;0.50;;
56712;SDS011;42589;45.536;9.032;2023-04-24T15:35:17;0.68;;;0.45;;
56712;SDS011;42589;45.536;9.032;2023-04-24T15:38:18;0.60;;;0.50;;
56712;SDS011;42589;45.536;9.032;2023-04-24T15:41:18;0.95;;;0.70;;
56712;SDS011;42589;45.536;9.032;2023-04-24T15:44:20;0.73;;;0.40;;
56712;SDS011;42589;45.536;9.032;2023-04-24T15:47:21;1.27;;;0.50;;
56712;SDS011;42589;45.536;9.032;2023-04-24T15:50:22;0.55;;;0.55;;
56712;SDS011;42589;45.536;9.032;2023-04-24T15:53:23;0.50;;;0.40;;
56712;SDS011;42589;45.536;9.032;2023-04-24T15:56:24;2.20;;;0.68;;
56712;SDS011;42589;45.536;9.032;2023-04-24T15:59:25;0.85;;;0.50;;
56712;SDS011;42589;45.536;9.032;2023-04-24T16:02:27;1.35;;;0.50;;
56712;SDS011;42589;45.536;9.032;2023-04-24T16:05:29;0.35;;;0.30;;
56712;SDS011;42589;45.536;9.032;2023-04-24T16:08:30;1.08;;;0.50;;
56712;SDS011;42589;45.536;9.032;2023-04-24T16:11:32;0.70;;;0.50;;
56712;SDS011;42589;45.536;9.032;2023-04-24T16:14:35;3.00;;;0.47;;
56712;SDS011;42589;45.536;9.032;2023-04-24T16:17:37;0.50;;;0.40;;
56712;SDS011;42589;45.536;9.032;2023-04-24T16:20:37;0.38;;;0.38;;
56712;SDS011;42589;45.536;9.032;2023-04-24T16:23:38;2.22;;;0.80;;
56712;SDS011;42589;45.536;9.032;2023-04-24T16:26:39;0.90;;;0.70;;
56712;SDS011;42589;45.536;9.032;2023-04-24T16:29:39;0.52;;;0.50;;
56712;SDS011;42589;45.536;9.032;2023-04-24T16:32:40;0.50;;;0.40;;
56712;SDS011;42589;45.536;9.032;2023-04-24T16:35:41;0.75;;;0.50;;
56712;SDS011;42589;45.536;9.032;2023-04-24T16:38:43;0.40;;;0.40;;
56712;SDS011;42589;45.536;9.032;2023-04-24T16:41:43;0.75;;;0.50;;
56712;SDS011;42589;45.536;9.032;2023-04-24T16:44:45;1.25;;;0.57;;
56712;SDS011;42589;45.536;9.032;2023-04-24T16:47:46;0.55;;;0.50;;
56712;SDS011;42589;45.536;9.032;2023-04-24T16:50:47;0.50;;;0.40;;
56712;SDS011;42589;45.536;9.032;2023-04-24T16:53:49;1.00;;;0.50;;
56712;SDS011;42589;45.536;9.032;2023-04-24T16:56:51;1.42;;;0.50;;
56712;SDS011;42589;45.536;9.032;2023-04-24T16:59:52;0.95;;;0.50;;
56712;SDS011;42589;45.536;9.032;2023-04-24T17:02:53;1.85;;;0.60;;
56712;SDS011;42589;45.536;9.032;2023-04-24T17:05:54;0.50;;;0.47;;
56712;SDS011;42589;45.536;9.032;2023-04-24T17:08:55;1.83;;;0.47;;
56712;SDS011;42589;45.536;9.032;2023-04-24T17:11:56;1.55;;;0.60;;
56712;SDS011;42589;45.536;9.032;2023-04-24T17:14:57;1.83;;;0.60;;
56712;SDS011;42589;45.536;9.032;2023-04-24T17:17:58;2.63;;;0.63;;
56712;SDS011;42589;45.536;9.032;2023-04-24T17:20:58;1.17;;;0.70;;
56712;SDS011;42589;45.536;9.032;2023-04-24T17:23:59;1.10;;;0.50;;
56712;SDS011;42589;45.536;9.032;2023-04-24T17:27:00;0.77;;;0.60;;
56712;SDS011;42589;45.536;9.032;2023-04-24T17:30:02;2.35;;;0.75;;
56712;SDS011;42589;45.536;9.032;2023-04-24T17:33:03;1.85;;;0.95;;
56712;SDS011;42589;45.536;9.032;2023-04-24T17:36:04;1.75;;;0.80;;
56712;SDS011;42589;45.536;9.032;2023-04-24T17:39:06;0.95;;;0.63;;
56712;SDS011;42589;45.536;9.032;2023-04-24T17:42:08;1.23;;;0.80;;
56712;SDS011;42589;45.536;9.032;2023-04-24T17:45:09;1.27;;;0.60;;
56712;SDS011;42589;45.536;9.032;2023-04-24T17:48:11;1.33;;;0.77;;
56712;SDS011;42589;45.536;9.032;2023-04-24T17:51:13;1.15;;;0.60;;
56712;SDS011;42589;45.536;9.032;2023-04-24T17:54:13;2.22;;;0.70;;
56712;SDS011;42589;45.536;9.032;2023-04-24T17:57:14;1.80;;;0.82;;
56712;SDS011;42589;45.536;9.032;2023-04-24T18:00:15;1.55;;;0.68;;
56712;SDS011;42589;45.536;9.032;2023-04-24T18:03:16;2.78;;;1.00;;
56712;SDS011;42589;45.536;9.032;2023-04-24T18:06:18;3.22;;;1.15;;
56712;SDS011;42589;45.536;9.032;2023-04-24T18:09:18;2.97;;;1.15;;
56712;SDS011;42589;45.536;9.032;2023-04-24T18:12:20;5.93;;;1.10;;
56712;SDS011;42589;45.536;9.032;2023-04-24T18:15:21;3.83;;;1.02;;
56712;SDS011;42589;45.536;9.032;2023-04-24T18:18:22;1.80;;;1.02;;
56712;SDS011;42589;45.536;9.032;2023-04-24T18:21:23;2.53;;;1.20;;
56712;SDS011;42589;45.536;9.032;2023-04-24T18:24:24;2.70;;;1.60;;
56712;SDS011;42589;45.536;9.032;2023-04-24T18:27:25;1.25;;;1.10;;